createdAt,value
2019-02-02T00:05:46.644Z,14.53
2019-02-02T00:15:48.701Z,17.45
2019-02-02T00:25:50.679Z,13.43
2019-02-02T00:35:52.692Z,14.95
2019-02-02T00:45:54.928Z,14.20
2019-02-02T00:55:57.232Z,14.83
2019-02-02T01:05:59.211Z,13.53
2019-02-02T01:16:01.300Z,14.03
2019-02-02T01:26:03.895Z,13.43
2019-02-02T01:36:06.142Z,14.83
2019-02-02T01:46:08.314Z,14.35
2019-02-02T01:56:10.410Z,13.40
2019-02-02T02:06:12.489Z,12.33
2019-02-02T02:16:14.655Z,10.60
2019-02-02T02:26:16.716Z,11.93
2019-02-02T02:36:18.650Z,11.25
2019-02-02T02:46:20.665Z,12.45
2019-02-02T02:56:23.014Z,11.78
2019-02-02T03:06:25.322Z,11.60
2019-02-02T03:16:27.487Z,11.48
2019-02-02T03:26:29.499Z,11.68
2019-02-02T03:36:32.091Z,12.80
2019-02-02T03:46:34.341Z,13.50
2019-02-02T03:56:36.611Z,12.33
2019-02-02T04:06:38.588Z,13.22
2019-02-02T04:16:40.988Z,13.88
2019-02-02T04:26:43.165Z,12.47
2019-02-02T04:36:45.111Z,13.10
2019-02-02T04:46:47.363Z,13.75
2019-02-02T04:56:49.482Z,13.35
2019-02-02T05:06:52.005Z,14.18
2019-02-02T05:16:53.945Z,13.83
2019-02-02T05:26:56.312Z,14.87
2019-02-02T05:36:58.631Z,15.10
2019-02-02T05:47:00.630Z,12.23
2019-02-02T05:57:03.231Z,11.68
2019-02-02T06:07:05.671Z,9.87
2019-02-02T06:17:07.990Z,7.53
2019-02-02T06:27:10.506Z,9.33
2019-02-02T06:37:13.065Z,9.30
2019-02-02T06:47:15.698Z,9.70
2019-02-02T06:57:17.966Z,8.57
2019-02-02T07:07:20.481Z,7.00
2019-02-02T07:17:22.515Z,7.43
2019-02-02T07:27:25.054Z,6.60
2019-02-02T07:37:27.653Z,7.80
2019-02-02T07:47:29.610Z,6.37
2019-02-02T07:57:31.974Z,7.75
2019-02-02T08:07:34.022Z,8.20
2019-02-02T08:17:35.990Z,7.90
2019-02-02T08:27:38.018Z,11.03
2019-02-02T08:37:40.198Z,12.33
2019-02-02T08:47:42.491Z,13.65
2019-02-02T08:57:45.000Z,15.55
2019-02-02T09:07:47.143Z,17.07
2019-02-02T09:17:49.191Z,19.50
2019-02-02T09:27:51.221Z,22.48
2019-02-02T09:37:53.619Z,22.25
2019-02-02T09:47:55.641Z,22.87
2019-02-02T09:58:00.865Z,26.80
2019-02-02T10:08:03.055Z,27.02
2019-02-02T10:18:05.243Z,27.25
2019-02-02T10:28:07.218Z,29.02
2019-02-02T10:38:09.428Z,33.00
2019-02-02T10:48:11.943Z,40.05
2019-02-02T10:58:14.787Z,38.27
2019-02-02T11:08:16.710Z,40.23
2019-02-02T11:18:18.706Z,40.60
2019-02-02T11:28:21.225Z,36.45
2019-02-02T11:38:23.337Z,38.27
2019-02-02T11:48:25.365Z,40.73
2019-02-02T11:58:27.580Z,43.60
2019-02-02T12:08:29.598Z,44.60
2019-02-02T12:18:31.815Z,43.87
2019-02-02T12:28:33.936Z,45.55
2019-02-02T12:38:35.960Z,40.52
2019-02-02T12:48:38.108Z,34.40
2019-02-02T12:58:40.120Z,37.90
2019-02-02T13:08:42.181Z,37.10
2019-02-02T13:18:44.258Z,34.90
2019-02-02T13:28:46.459Z,39.30
2019-02-02T13:38:48.693Z,34.95
2019-02-02T13:48:51.195Z,37.53
2019-02-02T13:58:53.698Z,38.30
2019-02-02T14:08:56.223Z,38.95
2019-02-02T14:18:58.508Z,41.10
2019-02-02T14:29:00.471Z,41.28
2019-02-02T14:39:06.874Z,47.73
2019-02-02T14:49:08.828Z,48.55
2019-02-02T14:59:10.967Z,49.70
2019-02-02T15:09:12.952Z,46.58
2019-02-02T15:19:14.919Z,49.23
2019-02-02T15:29:17.293Z,47.53
2019-02-02T15:39:19.810Z,52.73
2019-02-02T15:49:21.877Z,51.55
2019-02-02T15:59:23.939Z,51.48
2019-02-02T16:09:27.859Z,51.50
2019-02-02T16:19:29.908Z,47.50
2019-02-02T16:29:33.839Z,47.20
2019-02-02T16:39:35.990Z,48.60
2019-02-02T16:49:37.956Z,51.63
2019-02-02T16:59:40.554Z,50.85
2019-02-02T17:09:42.482Z,48.15
2019-02-02T17:19:44.507Z,53.02
2019-02-02T17:29:46.806Z,54.98
2019-02-02T17:39:48.979Z,50.05
2019-02-02T17:49:51.058Z,57.40
2019-02-02T17:59:53.311Z,55.10
2019-02-02T18:09:55.746Z,57.00
2019-02-02T18:19:57.684Z,57.17
2019-02-02T18:29:59.828Z,56.28
2019-02-02T20:20:33.696Z,593.42
2019-02-02T20:30:36.221Z,245.93
2019-02-02T20:40:38.650Z,320.23
2019-02-02T20:50:40.958Z,397.95
2019-02-02T21:00:43.074Z,422.43
2019-02-02T21:10:45.138Z,360.47
2019-02-02T21:20:47.335Z,331.23
2019-02-02T21:30:49.286Z,536.73
2019-02-02T21:40:51.750Z,602.83
2019-02-02T21:50:54.145Z,609.83
2019-02-02T22:00:56.959Z,543.87
2019-02-02T22:10:59.036Z,508.38
2019-02-02T22:21:01.484Z,591.90
2019-02-02T22:31:03.474Z,530.10
2019-02-02T22:41:06.988Z,499.63
2019-02-02T22:51:11.340Z,664.32
2019-02-02T23:01:19.883Z,601.52
2019-02-02T23:11:55.845Z,674.67
2019-02-02T23:21:57.811Z,600.53
2019-02-02T23:32:00.079Z,568.57
2019-02-02T23:42:02.116Z,533.70
2019-02-02T23:52:04.438Z,494.40
